Time;durP1;ratioP1;P1;durP2;ratioP2;P2;SDS_P1;SDS_P2;PMS_P1;PMS_P2;Temp;Humidity;BMP_temperature;BMP_pressure;BME280_temperature;BME280_humidity;BME280_pressure;Samples;Min_cycle;Max_cycle;Signal;HPM_P1;HPM_P2
2023/07/26 00:01:18;;;;;;;9.85;4.43;;;;;;;29.78;40.60;98012.25;6320809;22;19994;-85
2023/07/26 00:03:44;;;;;;;8.27;3.95;;;;;;;29.78;40.77;98009.47;6293362;22;19994;-85
2023/07/26 00:06:10;;;;;;;11.90;4.53;;;;;;;29.75;40.79;98023.41;6318835;22;20002;-86
2023/07/26 00:08:35;;;;;;;8.52;4.07;;;;;;;29.74;40.50;98008.75;6293293;22;20019;-86
2023/07/26 00:11:01;;;;;;;8.90;4.30;;;;;;;29.78;40.73;98003.09;6293412;22;20002;-86
2023/07/26 00:13:27;;;;;;;11.50;4.60;;;;;;;29.77;41.27;97994.00;6319997;22;20031;-85
2023/07/26 00:15:52;;;;;;;9.65;4.20;;;;;;;29.73;41.05;97990.53;6318771;22;19998;-86
2023/07/26 00:18:21;;;;;;;9.30;4.50;;;;;;;29.79;40.60;97999.13;6293713;22;20455;-86
2023/07/26 00:20:47;;;;;;;9.90;4.57;;;;;;;29.80;41.02;98003.47;6293725;22;20002;-86
2023/07/26 00:23:13;;;;;;;8.82;4.60;;;;;;;29.69;41.12;97983.50;6317901;22;20402;-85
2023/07/26 00:25:39;;;;;;;9.02;4.70;;;;;;;29.73;41.39;97987.00;6371672;22;20073;-87
2023/07/26 00:28:05;;;;;;;10.82;4.63;;;;;;;29.70;41.62;97980.31;6319218;22;19994;-86
2023/07/26 00:30:30;;;;;;;9.82;4.18;;;;;;;29.62;41.82;97971.34;6318328;22;20486;-85
2023/07/26 00:32:57;;;;;;;8.48;4.70;;;;;;;29.57;42.18;97971.06;6293499;22;20002;-86
2023/07/26 00:35:24;;;;;;;11.10;4.65;;;;;;;29.63;41.87;97977.66;6319165;22;19991;-86
2023/07/26 00:37:50;;;;;;;11.52;4.63;;;;;;;29.54;42.24;97958.06;6292925;22;20027;-87
2023/07/26 00:40:15;;;;;;;9.48;4.75;;;;;;;29.47;41.82;97952.66;6293825;22;20010;-86
2023/07/26 00:42:41;;;;;;;8.50;4.43;;;;;;;29.50;42.77;97965.69;6293461;22;19999;-86
2023/07/26 00:45:07;;;;;;;13.55;4.65;;;;;;;29.52;43.04;97980.69;6318633;22;20010;-86
2023/07/26 00:47:33;;;;;;;9.75;4.40;;;;;;;29.48;42.02;97971.66;6292867;22;19998;-86
2023/07/26 00:49:58;;;;;;;9.93;4.25;;;;;;;29.48;42.16;97960.56;6318823;22;20428;-86
2023/07/26 00:52:25;;;;;;;8.48;4.15;;;;;;;29.54;42.49;97972.72;6318094;22;19994;-85
2023/07/26 00:54:55;;;;;;;10.13;4.50;;;;;;;29.41;42.90;97952.41;6319650;22;20461;-86
2023/07/26 00:57:22;;;;;;;8.73;4.73;;;;;;;29.31;42.15;97937.56;6320067;22;20073;-87
2023/07/26 00:59:48;;;;;;;8.60;4.15;;;;;;;29.40;42.76;97954.38;6293285;22;20020;-86
2023/07/26 01:02:14;;;;;;;11.98;4.35;;;;;;;29.30;42.56;97932.44;6292492;22;20006;-86
2023/07/26 01:04:39;;;;;;;10.90;4.40;;;;;;;29.30;42.98;97933.25;6319594;22;20007;-86
2023/07/26 01:07:22;;;;;;;7.70;4.15;;;;;;;29.30;42.61;97935.22;6318578;22;20455;-87
2023/07/26 01:10:17;;;;;;;6.88;4.15;;;;;;;29.28;42.30;97937.66;6318780;22;20009;-86
2023/07/26 01:12:54;;;;;;;8.57;4.75;;;;;;;29.24;42.79;97923.88;6288199;22;20002;-86
2023/07/26 01:15:23;;;;;;;8.40;4.07;;;;;;;29.26;42.35;97927.00;6318355;22;20336;-86
2023/07/26 01:18:10;;;;;;;9.18;4.30;;;;;;;29.36;42.49;97939.81;6293272;22;20051;-86
2023/07/26 01:20:38;;;;;;;8.68;4.50;;;;;;;29.29;42.18;97923.34;6317501;22;20002;-86
2023/07/26 01:23:06;;;;;;;11.52;4.47;;;;;;;29.44;42.02;97945.22;6319512;22;20068;-86
2023/07/26 01:25:35;;;;;;;11.55;4.22;;;;;;;29.40;42.06;97934.97;6317495;22;20063;-86
2023/07/26 01:28:02;;;;;;;8.85;4.13;;;;;;;29.39;41.82;97936.19;6344299;22;20088;-86
2023/07/26 01:30:29;;;;;;;7.72;4.50;;;;;;;29.40;41.80;97936.97;6286397;22;20453;-86
2023/07/26 01:32:56;;;;;;;8.85;4.60;;;;;;;29.40;41.73;97939.75;6288196;22;20430;-86
2023/07/26 01:35:22;;;;;;;10.23;4.65;;;;;;;29.37;41.63;97935.09;6287377;22;19998;-86
2023/07/26 01:37:48;;;;;;;9.48;4.28;;;;;;;29.36;41.84;97939.03;6314101;22;20001;-86
2023/07/26 01:40:14;;;;;;;10.35;4.22;;;;;;;29.31;42.30;97929.25;6289461;22;20001;-86
2023/07/26 01:42:39;;;;;;;10.13;4.22;;;;;;;29.28;42.24;97932.09;6288398;22;19995;-86
2023/07/26 01:45:05;;;;;;;6.95;4.18;;;;;;;29.27;41.88;97933.31;6288755;22;20066;-86
2023/07/26 01:47:31;;;;;;;7.32;4.63;;;;;;;29.35;41.98;97943.03;6314733;22;20025;-85
2023/07/26 01:49:57;;;;;;;13.20;4.45;;;;;;;29.24;42.37;97934.16;6288349;22;19999;-86
2023/07/26 01:52:26;;;;;;;8.32;4.40;;;;;;;29.18;42.56;97922.81;6314499;22;20045;-87
2023/07/26 01:54:52;;;;;;;12.05;4.85;;;;;;;29.16;42.24;97928.03;6288924;22;19991;-87
2023/07/26 01:57:22;;;;;;;7.78;3.88;;;;;;;29.24;42.13;97940.50;6340668;22;20069;-87
2023/07/26 01:59:48;;;;;;;8.02;4.07;;;;;;;29.16;42.37;97936.34;6290723;22;20002;-86
2023/07/26 02:02:13;;;;;;;9.77;4.35;;;;;;;29.10;42.07;97930.50;6288226;22;20002;-87
2023/07/26 02:04:39;;;;;;;9.45;4.90;;;;;;;29.14;42.38;97938.75;6264264;22;20053;-87
2023/07/26 02:07:04;;;;;;;7.15;4.20;;;;;;;29.01;41.75;97936.59;6314502;22;20506;-87
2023/07/26 02:09:30;;;;;;;11.80;4.40;;;;;;;29.11;42.18;97940.38;6313909;22;19999;-87
2023/07/26 02:11:55;;;;;;;14.10;4.65;;;;;;;29.00;42.24;97921.16;6288635;22;20007;-87
2023/07/26 02:14:22;;;;;;;17.05;5.13;;;;;;;29.01;41.85;97925.53;6262767;22;20006;-87
2023/07/26 02:16:49;;;;;;;9.30;4.47;;;;;;;29.05;41.99;97936.50;6315529;22;19999;-87
2023/07/26 02:19:15;;;;;;;13.07;4.60;;;;;;;28.92;42.36;97922.53;6263633;22;19999;-86
2023/07/26 02:21:40;;;;;;;9.02;4.35;;;;;;;28.92;42.31;97918.97;6288276;22;20076;-86
2023/07/26 02:24:07;;;;;;;11.02;4.40;;;;;;;28.98;42.53;97931.91;6263396;22;20048;-87
2023/07/26 02:26:32;;;;;;;9.18;4.13;;;;;;;28.98;42.06;97928.34;6264394;22;20445;-86
2023/07/26 02:28:58;;;;;;;15.40;4.38;;;;;;;28.95;42.19;97923.66;6293883;22;20022;-87
2023/07/26 02:31:24;;;;;;;12.02;4.30;;;;;;;28.85;41.94;97913.59;6320462;22;20035;-86
2023/07/26 02:33:50;;;;;;;7.90;4.38;;;;;;;28.91;42.41;97912.66;6346626;22;20366;-86
2023/07/26 02:36:15;;;;;;;9.07;4.63;;;;;;;28.95;42.75;97918.13;6293477;22;20344;-87
2023/07/26 02:38:41;;;;;;;14.90;4.53;;;;;;;28.99;42.53;97921.59;6294465;22;19998;-86
2023/07/26 02:41:06;;;;;;;10.30;4.43;;;;;;;28.84;42.02;97904.47;6345460;22;20402;-86
2023/07/26 02:43:33;;;;;;;11.20;4.30;;;;;;;28.92;41.92;97910.66;6294028;22;20003;-86
2023/07/26 02:45:59;;;;;;;10.25;4.28;;;;;;;28.96;42.22;97919.69;6319412;22;20002;-86
2023/07/26 02:48:25;;;;;;;9.25;4.22;;;;;;;28.89;42.07;97894.88;6320206;22;20404;-86
2023/07/26 02:50:51;;;;;;;18.10;4.72;;;;;;;28.90;41.93;97908.31;6346223;22;19979;-86
2023/07/26 02:53:22;;;;;;;9.63;4.72;;;;;;;28.78;41.92;97887.59;6345206;22;20014;-85
2023/07/26 02:55:47;;;;;;;10.27;4.15;;;;;;;28.90;42.40;97908.31;6319413;22;20321;-85
2023/07/26 02:58:13;;;;;;;9.02;4.50;;;;;;;29.04;42.27;97929.41;6293730;22;20059;-85
2023/07/26 03:00:39;;;;;;;10.32;4.63;;;;;;;28.95;42.71;97916.16;6319597;22;19999;-86
2023/07/26 03:03:09;;;;;;;10.13;4.20;;;;;;;28.93;42.58;97917.75;6293005;22;20055;-86
2023/07/26 03:05:43;;;;;;;9.95;3.83;;;;;;;28.97;42.34;97916.50;6321883;22;20021;-86
2023/07/26 03:08:08;;;;;;;13.57;4.55;;;;;;;28.99;42.47;97907.72;6345579;22;19994;-86
2023/07/26 03:10:34;;;;;;;10.65;4.63;;;;;;;29.08;42.20;97923.81;6294038;22;20001;-85
2023/07/26 03:13:00;;;;;;;10.32;4.32;;;;;;;29.12;42.43;97919.00;6294935;22;19999;-86
2023/07/26 03:15:25;;;;;;;9.55;4.40;;;;;;;29.07;42.10;97906.38;6345613;22;19998;-85
2023/07/26 03:17:52;;;;;;;7.57;3.85;;;;;;;29.17;42.31;97919.25;6319594;22;19994;-85
2023/07/26 03:20:18;;;;;;;9.32;4.20;;;;;;;29.14;42.14;97916.56;6319524;22;20014;-84
2023/07/26 03:22:45;;;;;;;11.07;4.68;;;;;;;29.19;42.64;97914.06;6319247;22;19998;-85
2023/07/26 03:25:10;;;;;;;8.73;4.40;;;;;;;29.23;42.53;97916.00;6343635;22;20018;-86
2023/07/26 03:27:36;;;;;;;8.00;4.63;;;;;;;29.21;42.35;97894.22;6293332;22;19998;-86
2023/07/26 03:30:03;;;;;;;8.40;4.10;;;;;;;29.21;42.35;97897.78;6294342;22;20025;-87
2023/07/26 03:32:31;;;;;;;9.18;4.35;;;;;;;29.24;42.36;97898.13;6294635;22;20059;-86
2023/07/26 03:34:57;;;;;;;9.48;4.25;;;;;;;29.34;42.40;97908.19;6296328;22;20377;-88
2023/07/26 03:37:23;;;;;;;8.95;4.35;;;;;;;29.29;42.37;97897.63;6320023;22;20003;-88
2023/07/26 03:39:52;;;;;;;9.70;4.75;;;;;;;29.30;42.16;97907.50;6296086;22;20140;-88
2023/07/26 03:42:18;;;;;;;7.80;4.50;;;;;;;29.35;41.98;97910.53;6322592;22;20058;-88
2023/07/26 03:44:44;;;;;;;10.20;4.13;;;;;;;29.37;41.90;97913.66;6320186;22;19998;-89
2023/07/26 03:47:09;;;;;;;10.35;4.60;;;;;;;29.30;42.42;97913.84;6293755;22;20140;-89
2023/07/26 03:49:35;;;;;;;13.48;4.50;;;;;;;29.34;42.38;97905.44;6322279;22;20013;-88
2023/07/26 03:52:01;;;;;;;12.90;4.90;;;;;;;29.39;43.51;97932.66;6294590;22;19998;-90
2023/07/26 03:54:28;;;;;;;9.32;4.82;;;;;;;29.36;43.25;97914.88;6321757;22;20071;-90
2023/07/26 03:57:07;;;;;;;11.77;4.88;;;;;;;29.38;43.49;97922.75;6296096;22;20313;-89
2023/07/26 03:59:33;;;;;;;12.02;4.88;;;;;;;29.48;43.54;97927.28;6373835;22;19995;-90
2023/07/26 04:02:01;;;;;;;14.88;5.35;;;;;;;29.45;43.84;97924.59;6320816;22;20059;-88
2023/07/26 04:04:28;;;;;;;13.77;4.70;;;;;;;29.46;43.32;97935.25;6322131;22;20009;-88
2023/07/26 04:06:54;;;;;;;14.93;4.88;;;;;;;29.53;43.18;97915.69;6320243;22;20006;-89
2023/07/26 04:09:22;;;;;;;9.73;4.95;;;;;;;29.59;42.76;97910.38;6320620;22;20006;-89
2023/07/26 04:11:52;;;;;;;6.63;4.20;;;;;;;29.67;43.22;97924.88;6294875;22;20007;-90
2023/07/26 04:14:17;;;;;;;11.50;4.72;;;;;;;29.73;42.59;97921.19;6295123;22;19994;-89
2023/07/26 04:16:44;;;;;;;15.27;6.50;;;;;;;29.77;43.34;97929.41;6291039;22;20005;-91
2023/07/26 04:19:09;;;;;;;19.17;11.98;;;;;;;29.39;44.44;97921.56;6347452;22;20005;-89
2023/07/26 04:21:41;;;;;;;14.43;5.10;;;;;;;29.34;44.69;97922.84;6323381;22;20026;-91
2023/07/26 04:24:07;;;;;;;12.27;5.60;;;;;;;29.19;44.47;97916.06;6295676;22;20067;-89
2023/07/26 04:26:34;;;;;;;12.60;4.78;;;;;;;29.30;44.46;97924.13;6294320;22;20010;-90
2023/07/26 04:29:00;;;;;;;9.07;4.85;;;;;;;29.29;44.74;97942.00;6295577;22;20010;-89
2023/07/26 04:31:29;;;;;;;14.35;4.95;;;;;;;29.34;44.12;97936.69;6294408;22;20424;-89
2023/07/26 04:33:55;;;;;;;10.88;4.82;;;;;;;29.24;45.37;97937.75;6294276;22;20002;-88
2023/07/26 04:36:25;;;;;;;14.63;6.95;;;;;;;29.39;45.84;97950.06;6319857;22;19994;-88
2023/07/26 04:39:00;;;;;;;10.98;4.63;;;;;;;29.38;46.60;97953.25;6293712;22;19998;-88
2023/07/26 04:41:28;;;;;;;10.15;4.80;;;;;;;29.40;44.77;97945.28;6298169;22;20495;-89
2023/07/26 04:43:54;;;;;;;12.23;4.88;;;;;;;29.49;44.51;97958.56;6295399;22;20009;-89
2023/07/26 04:46:20;;;;;;;15.07;6.15;;;;;;;29.52;45.67;97960.50;6346225;22;19998;-88
2023/07/26 04:48:45;;;;;;;13.68;5.78;;;;;;;29.33;46.00;97971.19;6296360;22;20006;-90
2023/07/26 04:51:11;;;;;;;16.55;5.50;;;;;;;29.40;46.08;97981.34;6295095;22;20398;-89
2023/07/26 05:01:59;;;;;;;14.52;5.40;;;;;;;29.36;48.22;97947.38;6301425;22;20025;-96
2023/07/26 05:04:27;;;;;;;;;;;;;;;29.40;48.44;97996.00;6327394;22;20030;-95
2023/07/26 05:07:03;;;;;;;14.18;5.53;;;;;;;29.53;48.18;97993.34;6338114;22;19935;-96
2023/07/26 05:09:32;;;;;;;17.48;5.55;;;;;;;29.45;47.87;97980.84;6310329;22;19998;-96
2023/07/26 05:12:09;;;;;;;15.32;5.57;;;;;;;29.47;47.36;97966.53;6309512;22;20006;-96
2023/07/26 05:14:58;;;;;;;14.48;5.90;;;;;;;29.69;48.06;98011.22;6312794;22;20014;-96
2023/07/26 05:17:31;;;;;;;13.82;5.28;;;;;;;29.43;47.82;97974.97;6335681;22;20016;-96
2023/07/26 05:20:01;;;;;;;13.35;5.75;;;;;;;29.79;46.95;98013.00;6334276;22;19999;-96
2023/07/26 05:22:41;;;;;;;19.33;9.30;;;;;;;29.76;45.90;97986.91;6358890;22;20000;-96
2023/07/26 05:25:10;;;;;;;11.82;6.72;;;;;;;29.77;47.62;97996.78;6309644;22;20022;-96
2023/07/26 05:30:10;;;;;;;15.35;6.93;;;;;;;30.00;45.45;97983.97;6387751;22;20022;-96
2023/07/26 05:32:36;;;;;;;16.77;6.18;;;;;;;30.01;44.98;97991.09;6302335;22;20463;-96
2023/07/26 05:35:02;;;;;;;14.05;5.78;;;;;;;30.11;43.38;97997.59;6302654;22;19990;-95
2023/07/26 05:37:30;;;;;;;15.93;5.93;;;;;;;30.15;43.68;98001.06;6303561;22;20006;-96
2023/07/26 05:40:02;;;;;;;10.43;5.78;;;;;;;30.09;44.11;97989.72;6301402;22;19998;-93
2023/07/26 05:42:28;;;;;;;50.13;15.90;;;;;;;30.12;44.12;97994.38;6300867;22;20022;-93
2023/07/26 05:44:54;;;;;;;22.02;8.55;;;;;;;30.18;44.13;97989.09;6300489;22;20009;-93
2023/07/26 05:47:19;;;;;;;18.60;10.40;;;;;;;30.17;45.02;97998.63;6298842;22;19998;-93
2023/07/26 05:49:54;;;;;;;25.67;14.75;;;;;;;30.23;43.80;98011.53;6300140;22;20053;-92
2023/07/26 05:52:22;;;;;;;21.42;13.50;;;;;;;30.06;44.26;97984.25;6315376;22;20055;-94
2023/07/26 05:54:53;;;;;;;12.73;5.90;;;;;;;30.20;44.62;98006.88;6306032;22;20041;-96
2023/07/26 05:57:19;;;;;;;10.27;5.32;;;;;;;30.15;44.67;97998.28;6309102;22;19990;-96
2023/07/26 05:59:45;;;;;;;13.85;6.00;;;;;;;30.15;43.30;97998.28;6320031;22;20048;-96
2023/07/26 06:02:11;;;;;;;14.80;5.60;;;;;;;30.10;43.64;97994.03;6252620;22;20019;-96
2023/07/26 06:04:36;;;;;;;14.55;5.45;;;;;;;30.19;44.33;97999.75;6213138;22;20000;-96
2023/07/26 06:07:05;;;;;;;13.35;4.68;;;;;;;30.29;43.28;98000.72;6213067;22;20010;-96
2023/07/26 06:09:31;;;;;;;12.10;5.03;;;;;;;30.49;42.81;98027.63;6220609;22;20000;-96
2023/07/26 06:11:58;;;;;;;12.50;4.78;;;;;;;30.44;42.50;97994.81;6215895;22;20002;-96
2023/07/26 06:16:59;;;;;;;10.73;4.22;;;;;;;30.49;42.78;97997.84;6322401;22;20015;-96
2023/07/26 06:19:27;;;;;;;14.73;5.20;;;;;;;30.52;42.49;97987.84;6251357;22;20015;-96
2023/07/26 06:21:57;;;;;;;15.18;6.38;;;;;;;30.51;43.04;97981.53;6245656;22;20003;-96
2023/07/26 06:24:54;;;;;;;12.38;5.75;;;;;;;30.60;42.55;97983.69;6250215;22;20033;-96
2023/07/26 06:27:28;;;;;;;17.33;9.07;;;;;;;30.62;41.89;97997.91;6297011;22;20023;-94
2023/07/26 06:53:22;;;;;;;11.93;5.95;;;;;;;31.78;39.68;97991.44;6331187;22;20033;-95
2023/07/26 06:55:48;;;;;;;10.05;6.07;;;;;;;31.90;39.76;97983.53;6285803;22;20047;-96
2023/07/26 06:58:24;;;;;;;18.60;7.20;;;;;;;32.17;39.40;98011.69;6303280;22;20046;-96
2023/07/26 07:00:57;;;;;;;16.27;6.43;;;;;;;32.14;38.92;97995.09;6329823;22;20006;-95
2023/07/26 07:03:23;;;;;;;29.35;15.75;;;;;;;32.24;37.65;97982.81;6300695;22;20002;-96
2023/07/26 07:05:48;;;;;;;31.98;19.15;;;;;;;32.35;38.02;97974.09;6299407;22;20021;-95
2023/07/26 07:08:14;;;;;;;18.70;10.73;;;;;;;32.33;38.04;97959.84;6287155;22;20021;-88
2023/07/26 07:10:40;;;;;;;12.75;5.57;;;;;;;32.56;37.37;97967.84;6360555;22;20006;-91
2023/07/26 07:13:16;;;;;;;;;;;;;;;;;;;;;
2023/07/26 07:15:54;;;;;;;11.50;5.93;;;;;;;32.69;37.79;97959.41;6344027;22;19997;-92
2023/07/26 07:18:32;;;;;;;11.93;5.70;;;;;;;32.82;37.59;97962.13;6331732;22;20059;-92
2023/07/26 07:21:00;;;;;;;10.25;4.90;;;;;;;33.08;36.75;97978.75;6362217;22;19994;-91
2023/07/26 07:23:32;;;;;;;12.27;6.00;;;;;;;33.04;36.04;97956.56;6341942;22;20084;-96
2023/07/26 07:26:01;;;;;;;12.07;4.95;;;;;;;33.12;36.70;97954.28;6331774;22;20085;-92
2023/07/26 07:28:30;;;;;;;9.40;5.22;;;;;;;33.24;35.81;97947.09;6333262;22;20027;-94
2023/07/26 07:31:31;;;;;;;13.93;5.70;;;;;;;33.30;36.14;97946.03;6359323;22;20002;-94
2023/07/26 07:33:59;;;;;;;11.18;5.95;;;;;;;33.39;35.22;97942.50;6310738;22;20001;-94
2023/07/26 07:36:25;;;;;;;14.00;6.22;;;;;;;33.57;35.50;97945.38;6333201;22;19994;-93
2023/07/26 07:38:53;;;;;;;12.30;5.40;;;;;;;33.73;35.15;97968.72;6336191;22;19982;-93
2023/07/26 07:41:28;;;;;;;8.80;4.90;;;;;;;33.67;34.24;97948.25;6330873;22;20081;-94
2023/07/26 07:43:56;;;;;;;13.98;6.97;;;;;;;33.67;36.29;97937.06;6339619;22;20057;-94
2023/07/26 07:46:28;;;;;;;15.10;5.55;;;;;;;33.89;36.13;97950.91;6336787;22;20010;-90
2023/07/26 07:48:54;;;;;;;14.18;4.82;;;;;;;33.92;34.38;97955.59;6338729;22;19994;-90
2023/07/26 07:51:52;;;;;;;12.90;4.88;;;;;;;33.91;34.51;97920.50;6358133;22;19994;-89
2023/07/26 07:54:18;;;;;;;18.23;5.00;;;;;;;33.98;35.31;97928.63;6225836;22;20143;-88
2023/07/26 07:56:46;;;;;;;15.35;5.05;;;;;;;34.27;35.25;97944.22;6339820;22;19994;-89
2023/07/26 08:00:09;;;;;;;12.85;6.05;;;;;;;34.38;34.41;97927.75;6372493;22;20001;-96
2023/07/26 08:02:37;;;;;;;14.40;5.72;;;;;;;34.44;33.69;97913.94;6389692;22;20004;-89
2023/07/26 08:05:03;;;;;;;12.85;4.78;;;;;;;34.38;33.29;97906.16;6339026;22;20008;-88
2023/07/26 08:07:41;;;;;;;10.45;4.47;;;;;;;34.39;33.40;97910.50;6336795;22;20032;-88
2023/07/26 08:10:07;;;;;;;12.55;4.60;;;;;;;34.54;33.95;97910.66;6386893;22;19998;-87
2023/07/26 08:12:36;;;;;;;11.38;4.43;;;;;;;34.79;32.36;97917.19;6362311;22;20004;-87
2023/07/26 08:15:01;;;;;;;10.95;4.82;;;;;;;34.85;32.54;97906.16;6331335;22;20416;-87
2023/07/26 08:17:31;;;;;;;13.57;4.78;;;;;;;35.04;31.31;97921.63;6331452;22;20022;-86
2023/07/26 08:19:59;;;;;;;13.77;5.70;;;;;;;35.01;32.11;97903.78;6382781;22;20081;-87
2023/07/26 08:22:57;;;;;;;19.48;6.85;;;;;;;35.18;30.81;97923.81;6362072;22;19993;-87
2023/07/26 08:25:41;;;;;;;21.90;10.32;;;;;;;35.18;30.51;97904.22;6324808;22;20088;-88
2023/07/26 08:28:22;;;;;;;12.25;4.35;;;;;;;35.15;29.71;97898.78;6352709;22;20006;-86
2023/07/26 08:30:52;;;;;;;16.60;4.90;;;;;;;35.29;29.86;97912.09;6328687;22;20011;-87
2023/07/26 08:33:23;;;;;;;12.07;4.72;;;;;;;35.33;29.92;97909.13;6328730;22;20070;-88
2023/07/26 08:35:58;;;;;;;16.25;4.95;;;;;;;35.41;30.20;97907.56;6330037;22;20088;-88
2023/07/26 08:38:33;;;;;;;19.02;12.65;;;;;;;35.64;29.02;97910.88;6354846;22;20062;-87
2023/07/26 08:40:59;;;;;;;22.42;7.40;;;;;;;35.73;29.61;97920.00;6355178;22;20428;-88
2023/07/26 08:43:26;;;;;;;12.95;4.63;;;;;;;35.90;29.03;97920.38;6328900;22;20001;-88
2023/07/26 08:45:52;;;;;;;17.42;5.50;;;;;;;35.80;27.02;97897.25;6362843;22;20010;-90
2023/07/26 08:48:37;;;;;;;17.27;5.57;;;;;;;35.94;26.65;97892.19;6338709;22;20024;-96
2023/07/26 08:57:14;;;;;;;16.63;4.72;;;;;;;36.32;25.83;97891.47;6391605;22;20041;-96
2023/07/26 08:59:43;;;;;;;15.43;5.43;;;;;;;36.51;24.37;97891.31;6328670;22;20010;-89
2023/07/26 09:02:15;;;;;;;14.13;4.65;;;;;;;36.67;21.76;97887.28;6310187;22;20077;-95
2023/07/26 09:04:42;;;;;;;14.38;4.30;;;;;;;36.68;22.17;97864.38;6307670;22;19978;-91
2023/07/26 09:08:16;;;;;;;12.52;4.10;;;;;;;36.72;21.17;97866.97;6325196;22;20080;-89
2023/07/26 09:11:00;;;;;;;;;;;;;;;;;;;;;
2023/07/26 09:13:27;;;;;;;14.55;4.15;;;;;;;36.94;23.05;97875.00;6240910;22;20008;-96
2023/07/26 09:16:11;;;;;;;14.40;4.65;;;;;;;37.17;22.73;97895.81;6248336;22;19992;-96
2023/07/26 09:21:12;;;;;;;13.40;4.18;;;;;;;37.19;21.77;97882.06;6278983;22;20069;-88
2023/07/26 09:24:03;;;;;;;14.05;4.43;;;;;;;37.37;21.48;97886.66;6322711;22;20014;-90
2023/07/26 09:26:39;;;;;;;11.32;4.10;;;;;;;37.48;21.44;97884.03;6324905;22;20013;-89
2023/07/26 09:29:16;;;;;;;17.38;4.38;;;;;;;37.54;21.31;97889.72;6348030;22;20002;-89
2023/07/26 09:31:50;;;;;;;14.38;4.75;;;;;;;37.42;20.31;97874.75;6335282;22;20119;-96
2023/07/26 09:38:19;;;;;;;11.50;3.67;;;;;;;37.46;21.21;97860.50;6230697;23;20020;-87
2023/07/26 09:49:10;;;;;;;16.90;4.68;;;;;;;37.56;21.64;97851.47;6289623;22;20030;-87
2023/07/26 09:54:46;;;;;;;24.83;12.18;;;;;;;37.54;21.19;97839.16;6327928;22;20077;-87
2023/07/26 09:57:12;;;;;;;12.23;4.38;;;;;;;37.75;21.11;97860.44;6328000;22;19994;-93
2023/07/26 09:59:59;;;;;;;;;;;;;;;;;;;;;
2023/07/26 10:02:53;;;;;;;13.38;4.05;;;;;;;37.86;21.21;97854.19;6337270;22;20048;-93
2023/07/26 10:05:20;;;;;;;13.63;3.97;;;;;;;37.80;21.50;97850.53;6327571;22;20018;-92
2023/07/26 10:07:53;;;;;;;14.52;6.25;;;;;;;37.70;22.37;97824.59;6304894;22;20003;-93
2023/07/26 10:10:20;;;;;;;14.30;4.22;;;;;;;37.87;22.12;97849.31;6301690;22;20042;-94
2023/07/26 10:13:06;;;;;;;9.90;4.22;;;;;;;37.76;22.24;97821.88;6332045;22;19999;-96
2023/07/26 10:15:47;;;;;;;16.98;6.53;;;;;;;37.76;22.96;97828.25;6330619;22;19994;-93
2023/07/26 10:18:36;;;;;;;10.48;5.03;;;;;;;37.63;23.55;97819.41;6328549;22;19999;-94
2023/07/26 10:21:10;;;;;;;12.38;4.07;;;;;;;37.69;23.76;97806.22;6310267;22;20384;-95
2023/07/26 10:23:42;;;;;;;15.30;5.25;;;;;;;37.73;23.86;97817.22;6309734;22;20006;-96
2023/07/26 10:26:07;;;;;;;12.27;4.10;;;;;;;37.72;23.30;97798.84;6298780;22;20036;-90
2023/07/26 10:28:33;;;;;;;10.25;4.20;;;;;;;37.83;22.97;97803.81;6299992;22;19994;-91
2023/07/26 10:31:00;;;;;;;15.13;4.35;;;;;;;37.91;22.83;97790.88;6304080;22;20003;-91
2023/07/26 10:33:55;;;;;;;15.50;4.10;;;;;;;37.76;22.38;97788.94;6301104;22;19999;-91
2023/07/26 10:36:21;;;;;;;12.60;4.28;;;;;;;37.88;22.27;97797.50;6324661;22;19999;-93
2023/07/26 10:38:48;;;;;;;13.07;4.25;;;;;;;37.72;22.06;97801.66;6297780;22;20052;-89
2023/07/26 10:41:21;;;;;;;12.50;4.15;;;;;;;37.98;21.65;97805.28;6295614;22;20206;-90
2023/07/26 10:47:08;;;;;;;16.70;3.70;;;;;;;38.02;20.69;97788.22;6350729;22;20362;-88
2023/07/26 10:49:49;;;;;;;19.70;4.57;;;;;;;37.93;20.29;97774.28;6296800;22;20003;-87
2023/07/26 10:55:23;;;;;;;11.57;4.13;;;;;;;38.13;21.40;97782.72;6222647;23;19904;-86
2023/07/26 10:57:49;;;;;;;10.75;4.15;;;;;;;38.19;21.30;97775.13;6172000;23;20008;-88
2023/07/26 11:00:50;;;;;;;14.75;4.25;;;;;;;38.09;21.38;97761.72;6148735;23;20005;-91
2023/07/26 11:03:18;;;;;;;12.68;4.63;;;;;;;38.35;20.59;97787.81;6202886;22;20593;-88
2023/07/26 11:06:10;;;;;;;11.32;3.97;;;;;;;38.46;20.74;97772.31;6212185;22;20007;-88
2023/07/26 11:08:47;;;;;;;21.33;4.80;;;;;;;38.57;21.23;97772.41;6239130;22;20006;-88
2023/07/26 11:11:19;;;;;;;18.33;5.38;;;;;;;38.59;20.70;97765.00;6204990;22;20004;-88
2023/07/26 11:16:49;;;;;;;16.05;5.25;;;;;;;38.88;19.89;97773.69;6237450;22;20070;-88
2023/07/26 11:19:22;;;;;;;16.05;4.78;;;;;;;38.83;18.82;97758.31;6207069;22;20062;-89
2023/07/26 11:24:58;;;;;;;17.00;4.60;;;;;;;38.96;17.92;97750.22;6345268;22;21208;-88
2023/07/26 11:27:41;;;;;;;14.13;4.97;;;;;;;39.11;16.76;97766.16;6307751;22;20010;-87
2023/07/26 11:45:51;;;;;;;11.75;3.80;;;;;;;39.18;16.94;97743.97;6185638;22;20025;-85
2023/07/26 11:48:53;;;;;;;11.93;4.03;;;;;;;39.11;16.65;97738.78;6239654;22;20017;-86
2023/07/26 11:51:25;;;;;;;15.35;4.38;;;;;;;39.18;17.77;97743.16;6262785;22;20001;-89
2023/07/26 11:54:17;;;;;;;14.63;4.15;;;;;;;39.28;17.45;97735.28;6242909;22;20005;-89
2023/07/26 11:57:05;;;;;;;21.42;5.47;;;;;;;39.38;18.35;97742.25;6197579;23;20000;-89
2023/07/26 11:59:31;;;;;;;12.65;3.78;;;;;;;39.43;17.97;97733.06;6262834;22;20447;-86
2023/07/26 12:01:57;;;;;;;11.50;4.68;;;;;;;39.52;17.17;97734.91;6261994;22;20004;-86
2023/07/26 12:04:28;;;;;;;13.07;4.68;;;;;;;39.48;17.67;97723.88;6264645;22;20486;-88
2023/07/26 12:10:58;;;;;;;18.30;4.57;;;;;;;39.64;17.61;97727.25;6185184;23;20012;-86
2023/07/26 12:17:03;;;;;;;13.63;4.63;;;;;;;39.74;18.34;97700.38;6227742;23;19996;-91
2023/07/26 12:19:48;;;;;;;13.05;4.78;;;;;;;39.74;17.82;97700.38;6225237;23;20069;-87
2023/07/26 12:22:20;;;;;;;9.95;4.05;;;;;;;39.93;18.18;97707.13;6245109;22;19985;-87
2023/07/26 12:25:39;;;;;;;16.17;4.40;;;;;;;40.07;19.13;97727.13;6238635;22;20138;-88
2023/07/26 15:37:58;;;;;;;12.13;4.10;;;;;;;34.01;36.39;97710.63;6314903;22;20362;-88
2023/07/26 15:40:26;;;;;;;11.30;3.90;;;;;;;33.73;39.14;97709.09;6258233;22;20007;-90
2023/07/26 15:42:52;;;;;;;13.90;4.70;;;;;;;33.15;44.31;97697.53;6260059;22;20579;-91
2023/07/26 15:45:18;;;;;;;12.35;4.72;;;;;;;32.77;44.74;97704.25;6285609;22;20045;-90
2023/07/26 15:47:43;;;;;;;15.20;4.97;;;;;;;32.49;52.07;97700.53;6284385;22;20369;-92
2023/07/26 15:50:11;;;;;;;12.65;4.40;;;;;;;32.50;51.84;97706.88;6261028;22;20029;-89
2023/07/26 15:52:37;;;;;;;12.32;5.50;;;;;;;32.33;54.52;97707.13;6259624;22;20003;-89
2023/07/26 15:55:02;;;;;;;26.90;8.38;;;;;;;32.25;54.19;97705.84;6258248;22;19999;-89
2023/07/26 15:57:31;;;;;;;17.20;6.50;;;;;;;32.05;54.18;97711.00;6260920;22;19999;-88
2023/07/26 15:59:57;;;;;;;17.05;4.97;;;;;;;31.91;55.94;97701.13;6260278;22;19999;-88
2023/07/26 16:02:22;;;;;;;20.95;5.57;;;;;;;31.94;56.61;97720.47;6259476;22;20007;-90
2023/07/26 16:04:50;;;;;;;15.80;4.75;;;;;;;31.90;49.35;97724.63;6284434;22;19999;-90
2023/07/26 16:07:16;;;;;;;12.40;5.15;;;;;;;31.73;55.49;97735.94;6261592;22;19999;-90
2023/07/26 16:09:53;;;;;;;17.65;5.80;;;;;;;31.60;59.76;97718.50;6259189;22;20008;-89
2023/07/26 16:12:21;;;;;;;16.35;5.05;;;;;;;31.60;51.56;97730.41;6265581;22;20006;-89
2023/07/26 16:14:49;;;;;;;18.20;5.95;;;;;;;31.62;58.56;97741.09;6287557;22;20002;-86
2023/07/26 16:17:14;;;;;;;19.00;5.68;;;;;;;31.68;58.08;97763.56;6285259;22;19994;-86
2023/07/26 16:19:40;;;;;;;19.35;6.15;;;;;;;31.47;57.61;97765.84;6260006;22;20037;-87
2023/07/26 16:22:06;;;;;;;16.55;5.78;;;;;;;31.48;58.51;97795.25;6281273;22;20064;-87
2023/07/26 16:24:32;;;;;;;15.70;6.00;;;;;;;31.25;60.92;97796.34;6281734;22;20003;-87
2023/07/26 16:26:57;;;;;;;14.68;5.68;;;;;;;31.24;61.37;97794.03;6256538;22;20105;-88
2023/07/26 16:29:23;;;;;;;18.95;6.07;;;;;;;31.14;59.24;97812.59;6258276;22;20349;-87
2023/07/26 16:31:49;;;;;;;15.68;5.82;;;;;;;31.16;56.81;97826.84;6283335;22;19999;-89
2023/07/26 16:34:14;;;;;;;18.05;5.88;;;;;;;31.12;54.68;97823.38;6282871;22;19995;-88